Time;durP1;ratioP1;P1;durP2;ratioP2;P2;SDS_P1;SDS_P2;PMS_P1;PMS_P2;Temp;Humidity;BMP_temperature;BMP_pressure;BME280_temperature;BME280_humidity;BME280_pressure;Samples;Min_cycle;Max_cycle;Signal;HPM_P1;HPM_P2
2022/01/02 00:00:13;;;;;;;;;;;;;;;0.79;100.00;99459.72;1638081;86;20202;-78
2022/01/02 00:02:38;;;;;;;;;;;;;;;0.71;100.00;99469.63;1659183;84;21115;-77
2022/01/02 00:05:09;;;;;;;;;;;;;;;0.65;100.00;99467.40;1610345;87;20147;-80
2022/01/02 00:08:02;;;;;;;;;;;;;;;0.59;100.00;99480.56;1613253;86;20491;-77
2022/01/02 00:10:55;;;;;;;;;;;;;;;0.55;100.00;99488.92;1636068;86;20172;-78
2022/01/02 00:13:33;;;;;;;;;;;;;;;0.47;100.00;99491.52;1626476;86;20120;-75
2022/01/02 00:16:06;;;;;;;;;;;;;;;0.39;100.00;99491.95;1650554;85;21115;-76
2022/01/02 00:18:34;;;;;;;;;;;;;;;0.36;100.00;99490.30;1613202;86;20430;-75
2022/01/02 00:21:11;;;;;;;;;;;;;;;0.31;100.00;99500.49;1614647;86;20150;-77
2022/01/02 00:26:20;;;;;;;;;;;;;;;0.23;100.00;99508.48;1622085;85;20489;-75
2022/01/02 00:28:49;;;;;;;;;;;;;;;0.21;100.00;99516.55;1626313;86;21190;-77
2022/01/02 00:31:18;;;;;;;;;;;;;;;0.21;100.00;99516.55;1642870;85;20094;-77
2022/01/02 00:33:57;;;;;;;;;;;;;;;0.20;100.00;99526.53;1649944;85;20126;-75
2022/01/02 00:36:14;;;;;;;;;;;;;;;0.20;100.00;99527.88;1641995;85;20152;-73
2022/01/02 00:38:46;;;;;;;;;;;;;;;0.21;100.00;99532.75;1620368;87;20441;-75
2022/01/02 00:41:13;;;;;;;;;;;;;;;0.21;100.00;99531.40;1652785;86;21797;-75
2022/01/02 00:43:44;;;;;;;;;;;;;;;0.14;100.00;99538.85;1646786;85;20299;-76
2022/01/02 00:46:16;;;;;;;;;;;;;;;0.08;100.00;99518.25;1627688;87;21359;-74
2022/01/02 00:48:46;;;;;;;;;;;;;;;0.03;100.00;99543.81;1651349;86;20217;-73
2022/01/02 00:51:18;;;;;;;;;;;;;;;-0.02;100.00;99552.15;1652049;86;20154;-73
2022/01/02 00:53:50;;;;;;;;;;;;;;;-0.06;100.00;99551.00;1645480;85;21194;-73
2022/01/02 00:56:25;;;;;;;;;;;;;;;-0.09;100.00;99552.84;1620391;87;20129;-72
2022/01/02 00:58:54;;;;;;;;;;;;;;;-0.10;100.00;99550.39;1631900;85;20178;-72
2022/01/02 01:01:35;;;;;;;;;;;;;;;-0.11;100.00;99540.66;1664141;85;20441;-74
2022/01/02 01:04:00;;;;;;;;;;;;;;;-0.15;97.22;99551.66;1635252;86;20111;-73
2022/01/02 01:06:39;;;;;;;;;;;;;;;-0.19;95.82;99543.23;1628752;86;20086;-73
2022/01/02 01:09:06;;;;;;;;;;;;;;;-0.19;96.18;99555.38;1634670;86;20098;-75
2022/01/02 01:11:38;;;;;;;;;;;;;;;-0.20;94.26;99565.89;1652317;86;20113;-77
2022/01/02 01:14:12;;;;;;;;;;;;;;;-0.19;94.85;99568.05;1676370;84;20176;-77
2022/01/02 01:16:39;;;;;;;;;;;;;;;-0.16;94.65;99575.13;1650295;86;20152;-75
2022/01/02 01:19:13;;;;;;;;;;;;;;;-0.13;93.16;99576.52;1653893;85;21070;-75
2022/01/02 01:21:46;;;;;;;;;;;;;;;-0.10;93.45;99570.63;1651549;85;20174;-75
2022/01/02 01:24:11;;;;;;;;;;;;;;;-0.10;93.52;99571.45;1635181;86;20092;-74
2022/01/02 01:26:45;;;;;;;;;;;;;;;-0.10;91.82;99578.20;1650013;86;20126;-74
2022/01/02 01:29:15;;;;;;;;;;;;;;;-0.09;92.62;99589.28;1653054;84;20152;-76
2022/01/02 01:31:46;;;;;;;;;;;;;;;-0.08;92.37;99580.13;1626434;86;20175;-74
2022/01/02 01:34:15;;;;;;;;;;;;;;;-0.07;91.54;99594.43;1650751;85;20428;-74
2022/01/02 01:36:50;;;;;;;;;;;;;;;-0.06;91.11;99592.02;1649120;84;20145;-73
2022/01/02 01:39:15;;;;;;;;;;;;;;;-0.07;91.03;99588.50;1635755;86;20156;-73
2022/01/02 01:41:42;;;;;;;;;;;;;;;-0.10;90.28;99603.02;1652209;85;20125;-73
2022/01/02 01:46:48;;;;;;;;;;;;;;;-0.17;93.62;99607.75;1651635;85;20125;-75
2022/01/02 01:49:33;;;;;;;;;;;;;;;-0.20;94.58;99613.10;1641890;85;20611;-74
2022/01/02 01:51:56;;;;;;;;;;;;;;;-0.24;95.04;99623.27;1646858;86;20094;-74
2022/01/02 01:54:27;;;;;;;;;;;;;;;-0.28;95.85;99622.95;1664732;85;20204;-75
2022/01/02 01:56:54;;;;;;;;;;;;;;;-0.30;96.66;99631.81;1639347;86;21163;-75
2022/01/02 01:59:26;;;;;;;;;;;;;;;-0.29;97.48;99630.75;1639455;86;20091;-76
2022/01/02 02:01:53;;;;;;;;;;;;;;;-0.28;97.34;99624.82;1641368;86;20162;-76
2022/01/02 02:04:30;;;;;;;;;;;;;;;-0.28;97.02;99629.69;1639921;86;20131;-76
2022/01/02 02:06:58;;;;;;;;;;;;;;;-0.30;96.22;99631.81;1635878;86;20102;-77
2022/01/02 02:09:46;;;;;;;;;;;;;;;-0.30;95.54;99641.25;1631952;86;20161;-72
2022/01/02 02:12:00;;;;;;;;;;;;;;;-0.31;95.57;99653.10;1631281;85;20142;-76
2022/01/02 02:14:33;;;;;;;;;;;;;;;-0.33;95.43;99663.31;1621671;86;20102;-77
2022/01/02 02:17:03;;;;;;;;;;;;;;;-0.37;92.87;99652.72;1646829;86;20090;-75
2022/01/02 02:19:33;;;;;;;;;;;;;;;-0.40;91.17;99666.16;1624264;86;20150;-75
2022/01/02 02:22:07;;;;;;;;;;;;;;;-0.43;89.40;99672.03;1647434;86;21621;-73
2022/01/02 02:24:39;;;;;;;;;;;;;;;-0.52;86.78;99655.95;1627264;86;20501;-74
2022/01/02 02:27:14;;;;;;;;;;;;;;;-0.59;87.50;99668.78;1641864;85;20511;-74
2022/01/02 02:29:47;;;;;;;;;;;;;;;-0.63;85.00;99669.50;1660383;85;20185;-74
2022/01/02 02:32:18;;;;;;;;;;;;;;;-0.68;84.61;99664.30;1641647;85;20499;-74
2022/01/02 02:34:48;;;;;;;;;;;;;;;-0.69;84.54;99649.17;1659966;84;22258;-75
2022/01/02 02:37:17;;;;;;;;;;;;;;;-0.66;85.06;99664.05;1666442;84;20152;-74
2022/01/02 02:39:49;;;;;;;;;;;;;;;-0.64;84.37;99664.63;1645134;84;20176;-74
2022/01/02 02:42:39;;;;;;;;;;;;;;;-0.62;85.07;99661.70;1659249;84;20157;-74
2022/01/02 02:48:57;;;;;;;;;;;;;;;-0.62;84.99;99668.44;1631411;86;20129;-75
2022/01/02 02:50:23;;;;;;;;;;;;;;;-0.59;84.55;99688.19;1612290;86;20444;-75
2022/01/02 02:52:49;;;;;;;;;;;;;;;-0.60;84.40;99691.41;1632178;87;20183;-74
2022/01/02 02:55:30;;;;;;;;;;;;;;;-0.59;84.37;99691.70;1621494;87;20188;-74
2022/01/02 02:57:57;;;;;;;;;;;;;;;-0.60;84.44;99685.20;1621911;87;20188;-74
2022/01/02 03:00:20;;;;;;;;;;;;;;;-0.62;84.73;99698.92;1629067;86;21204;-74
2022/01/02 03:02:49;;;;;;;;;;;;;;;-0.59;85.27;99689.00;1644746;85;20166;-77
2022/01/02 03:05:20;;;;;;;;;;;;;;;-0.56;85.79;99691.72;1641028;86;20202;-76
2022/01/02 03:07:48;;;;;;;;;;;;;;;-0.56;85.83;99685.80;1631577;87;20125;-74
2022/01/02 03:10:23;;;;;;;;;;;;;;;-0.55;86.01;99692.83;1642434;86;20196;-74
2022/01/02 03:12:49;;;;;;;;;;;;;;;-0.55;86.09;99698.75;1638708;85;21591;-74
2022/01/02 03:15:17;;;;;;;;;;;;;;;-0.55;86.35;99698.75;1641023;86;20598;-74
2022/01/02 03:17:47;;;;;;;;;;;;;;;-0.52;86.80;99709.06;1641540;86;20090;-74
2022/01/02 03:20:20;;;;;;;;;;;;;;;-0.54;86.17;99700.39;1621631;86;20166;-74
2022/01/02 03:22:52;;;;;;;;;;;;;;;-0.58;86.15;99704.66;1647703;85;20191;-75
2022/01/02 03:25:18;;;;;;;;;;;;;;;-0.67;83.70;99708.25;1643824;86;21796;-74
2022/01/02 03:27:52;;;;;;;;;;;;;;;-0.76;83.38;99710.50;1664077;85;20096;-73
2022/01/02 03:30:24;;;;;;;;;;;;;;;-0.85;82.51;99715.14;1657168;85;20168;-75
2022/01/02 03:32:51;;;;;;;;;;;;;;;-0.94;82.81;99711.99;1664564;84;20206;-75
2022/01/02 03:35:20;;;;;;;;;;;;;;;-1.03;81.43;99721.49;1625945;85;20126;-76
2022/01/02 03:37:47;;;;;;;;;;;;;;;-1.10;82.48;99723.48;1657971;85;21534;-75
2022/01/02 03:40:15;;;;;;;;;;;;;;;-1.18;82.68;99722.52;1636676;85;20459;-76
2022/01/02 03:42:52;;;;;;;;;;;;;;;-1.25;81.57;99724.52;1631088;85;20088;-76
2022/01/02 03:45:19;;;;;;;;;;;;;;;-1.30;81.92;99733.30;1676403;84;20187;-75
2022/01/02 03:47:50;;;;;;;;;;;;;;;-1.32;82.39;99723.81;1656126;84;20119;-75
2022/01/02 03:50:18;;;;;;;;;;;;;;;-1.36;82.21;99734.23;1675675;84;21064;-76
2022/01/02 03:52:45;;;;;;;;;;;;;;;-1.39;82.49;99740.90;1655343;84;20088;-75
2022/01/02 03:55:13;;;;;;;;;;;;;;;-1.40;82.56;99744.64;1669691;85;20088;-75
2022/01/02 03:57:46;;;;;;;;;;;;;;;-1.43;83.15;99749.15;1681419;85;20123;-73
2022/01/02 04:00:14;;;;;;;;;;;;;;;-1.47;82.40;99756.05;1675891;85;20100;-71
2022/01/02 04:02:43;;;;;;;;;;;;;;;-1.49;82.72;99754.11;1662879;85;21104;-72
2022/01/02 04:05:14;;;;;;;;;;;;;;;-1.51;82.42;99765.64;1646980;84;20183;-72
2022/01/02 04:07:48;;;;;;;;;;;;;;;-1.53;83.32;99767.75;1645750;86;20475;-72
2022/01/02 04:10:18;;;;;;;;;;;;;;;-1.54;83.15;99778.75;1632391;86;20131;-71
2022/01/02 04:12:46;;;;;;;;;;;;;;;-1.58;83.22;99775.70;1639773;86;20153;-70
2022/01/02 04:15:19;;;;;;;;;;;;;;;-1.60;83.51;99778.33;1639796;86;20123;-70
2022/01/02 04:17:49;;;;;;;;;;;;;;;-1.61;84.52;99786.11;1617603;86;20175;-71
2022/01/02 04:20:20;;;;;;;;;;;;;;;-1.62;84.20;99789.32;1635494;86;20119;-70
2022/01/02 04:22:47;;;;;;;;;;;;;;;-1.63;83.90;99783.64;1638595;86;20650;-71
2022/01/02 04:25:18;;;;;;;;;;;;;;;-1.65;84.16;99784.39;1615681;86;20145;-70
2022/01/02 04:27:47;;;;;;;;;;;;;;;-1.67;84.56;99787.84;1650635;84;21239;-71
2022/01/02 04:30:22;;;;;;;;;;;;;;;-1.70;84.62;99778.88;1648999;84;20121;-74
2022/01/02 04:32:52;;;;;;;;;;;;;;;-1.75;84.31;99786.33;1656139;86;20170;-70
2022/01/02 04:35:23;;;;;;;;;;;;;;;-1.74;84.40;99791.19;1633060;86;20094;-70
2022/01/02 04:37:55;;;;;;;;;;;;;;;-1.74;85.08;99798.73;1586318;88;20179;-71
2022/01/02 04:40:25;;;;;;;;;;;;;;;-1.72;85.17;99785.02;1643312;86;21181;-72
2022/01/02 04:42:58;;;;;;;;;;;;;;;-1.73;84.69;99792.27;1625014;87;20111;-72
2022/01/02 04:45:30;;;;;;;;;;;;;;;-1.73;85.10;99807.08;1630099;86;20144;-73
2022/01/02 04:48:10;;;;;;;;;;;;;;;-1.73;85.39;99811.11;1623811;86;20461;-75
2022/01/02 04:50:30;;;;;;;;;;;;;;;-1.69;86.41;99813.64;1612409;87;20141;-76
2022/01/02 04:52:58;;;;;;;;;;;;;;;-1.64;86.49;99821.56;1623871;87;21816;-75
2022/01/02 04:55:28;;;;;;;;;;;;;;;-1.62;86.76;99824.84;1612432;87;20102;-76
2022/01/02 04:57:54;;;;;;;;;;;;;;;-1.56;87.60;99832.00;1625117;87;20150;-73
2022/01/02 05:00:21;;;;;;;;;;;;;;;-1.53;86.89;99831.02;1624014;87;20176;-75
2022/01/02 05:02:54;;;;;;;;;;;;;;;-1.50;87.31;99834.59;1613199;88;20446;-78
2022/01/02 05:05:25;;;;;;;;;;;;;;;-1.46;87.51;99836.30;1620160;86;20125;-75
2022/01/02 05:07:54;;;;;;;;;;;;;;;-1.44;87.52;99836.90;1637587;86;20446;-75
2022/01/02 05:10:24;;;;;;;;;;;;;;;-1.41;87.65;99829.70;1624831;87;20095;-74
2022/01/02 05:12:52;;;;;;;;;;;;;;;-1.38;88.58;99836.80;1614230;87;20433;-75
2022/01/02 05:15:25;;;;;;;;;;;;;;;-1.36;88.29;99838.73;1623663;87;20282;-73
2022/01/02 05:18:00;;;;;;;;;;;;;;;-1.36;88.07;99839.27;1619601;87;20126;-72
2022/01/02 05:20:32;;;;;;;;;;;;;;;-1.36;88.25;99835.22;1624250;87;20441;-75
2022/01/02 05:23:00;;;;;;;;;;;;;;;-1.35;88.28;99832.83;1615657;88;20098;-72
2022/01/02 05:25:31;;;;;;;;;;;;;;;-1.37;88.31;99841.13;1627182;87;20134;-72
2022/01/02 05:27:58;;;;;;;;;;;;;;;-1.37;88.47;99847.05;1624942;87;20078;-71
2022/01/02 05:30:28;;;;;;;;;;;;;;;-1.37;88.79;99838.97;1623964;87;21765;-72
2022/01/02 05:32:57;;;;;;;;;;;;;;;-1.40;88.65;99834.86;1608392;88;20143;-71
2022/01/02 05:35:31;;;;;;;;;;;;;;;-1.41;89.42;99837.26;1625950;87;20123;-71
2022/01/02 05:37:57;;;;;;;;;;;;;;;-1.41;89.75;99843.98;1623966;86;20338;-71
2022/01/02 05:40:32;;;;;;;;;;;;;;;-1.45;89.83;99842.81;1621056;87;20127;-72
2022/01/02 05:43:04;;;;;;;;;;;;;;;-1.46;89.57;99846.55;1639711;85;21248;-72
2022/01/02 05:45:34;;;;;;;;;;;;;;;-1.49;89.52;99847.01;1611795;86;20151;-71
2022/01/02 05:48:08;;;;;;;;;;;;;;;-1.53;89.62;99849.86;1635762;87;20090;-73
2022/01/02 05:50:38;;;;;;;;;;;;;;;-1.53;89.68;99863.33;1611196;87;20443;-71
2022/01/02 05:53:13;;;;;;;;;;;;;;;-1.56;89.73;99869.70;1607527;87;20192;-73
2022/01/02 05:55:47;;;;;;;;;;;;;;;-1.56;89.94;99877.77;1623252;86;21098;-72
2022/01/02 05:58:16;;;;;;;;;;;;;;;-1.58;90.81;99878.00;1639617;87;20111;-72
2022/01/02 06:00:47;;;;;;;;;;;;;;;-1.60;90.51;99882.79;1644592;86;20167;-73
2022/01/02 06:03:14;;;;;;;;;;;;;;;-1.69;89.50;99884.16;1632799;87;20128;-72
2022/01/02 06:05:50;;;;;;;;;;;;;;;-1.79;89.62;99890.64;1633936;86;20106;-74
2022/01/02 06:08:20;;;;;;;;;;;;;;;-1.84;89.58;99897.22;1646289;87;20215;-74
2022/01/02 06:10:52;;;;;;;;;;;;;;;-1.92;88.96;99890.80;1631833;86;20094;-75
2022/01/02 06:13:20;;;;;;;;;;;;;;;-2.03;88.04;99890.51;1640056;85;20076;-75
2022/01/02 06:15:49;;;;;;;;;;;;;;;-2.12;88.37;99895.89;1637661;86;20127;-74
2022/01/02 06:18:17;;;;;;;;;;;;;;;-2.15;89.27;99887.45;1629351;86;20133;-74
2022/01/02 06:20:51;;;;;;;;;;;;;;;-2.19;88.77;99894.31;1650049;86;21534;-74
2022/01/02 06:23:23;;;;;;;;;;;;;;;-2.24;88.58;99878.03;1637656;86;20105;-77
2022/01/02 06:25:49;;;;;;;;;;;;;;;-2.26;89.38;99900.29;1643599;86;20161;-73
2022/01/02 06:28:22;;;;;;;;;;;;;;;-2.26;88.91;99891.70;1626621;86;20102;-73
2022/01/02 06:30:52;;;;;;;;;;;;;;;-2.25;88.99;99893.34;1603717;88;20440;-74
2022/01/02 06:33:21;;;;;;;;;;;;;;;-2.24;88.44;99898.20;1643228;86;21097;-75
2022/01/02 06:35:52;;;;;;;;;;;;;;;-2.24;88.84;99899.55;1639085;86;20514;-72
2022/01/02 06:38:19;;;;;;;;;;;;;;;-2.26;88.17;99909.18;1612438;87;20130;-72
2022/01/02 06:40:53;;;;;;;;;;;;;;;-2.28;88.39;99899.17;1599238;88;20447;-75
2022/01/02 06:43:25;;;;;;;;;;;;;;;-2.27;88.92;99900.81;1600227;88;20133;-76
2022/01/02 06:45:52;;;;;;;;;;;;;;;-2.27;88.16;99904.02;1624225;87;21215;-75
2022/01/02 06:48:22;;;;;;;;;;;;;;;-2.27;88.50;99910.22;1642583;85;20092;-74
2022/01/02 06:50:49;;;;;;;;;;;;;;;-2.22;88.28;99902.31;1653785;86;20090;-74
2022/01/02 06:53:17;;;;;;;;;;;;;;;-2.10;87.92;99908.59;1649994;86;20241;-74
2022/01/02 06:55:50;;;;;;;;;;;;;;;-1.86;87.84;99908.20;1626119;86;20102;-74
2022/01/02 06:58:21;;;;;;;;;;;;;;;-1.57;87.24;99905.75;1629470;86;20166;-73
2022/01/02 07:00:47;;;;;;;;;;;;;;;-1.34;85.45;99910.70;1652087;86;20445;-73
2022/01/02 07:03:18;;;;;;;;;;;;;;;-1.17;84.91;99918.13;1649487;86;20106;-73
2022/01/02 07:05:46;;;;;;;;;;;;;;;-1.00;83.64;99918.56;1627243;86;20094;-73
2022/01/02 07:08:14;;;;;;;;;;;;;;;-0.74;82.32;99913.27;1649777;85;20174;-74
2022/01/02 07:10:41;;;;;;;;;;;;;;;-0.55;81.69;99917.19;1652471;86;21621;-73
2022/01/02 07:13:08;;;;;;;;;;;;;;;-0.55;79.34;99926.09;1654149;85;20158;-73
2022/01/02 07:15:36;;;;;;;;;;;;;;;-0.70;79.85;99921.72;1648646;85;20090;-74
2022/01/02 07:18:02;;;;;;;;;;;;;;;-0.84;78.50;99927.84;1649005;85;20177;-73
2022/01/02 07:20:28;;;;;;;;;;;;;;;-0.98;77.65;99939.06;1650009;86;20122;-74
2022/01/02 07:22:56;;;;;;;;;;;;;;;-1.10;78.93;99937.69;1648870;85;21120;-74
2022/01/02 07:25:22;;;;;;;;;;;;;;;-1.12;80.87;99934.40;1653070;86;20447;-74
2022/01/02 07:27:50;;;;;;;;;;;;;;;-1.18;78.48;99940.73;1628230;85;33719;-74
2022/01/02 07:30:16;;;;;;;;;;;;;;;-1.17;80.13;99944.55;1652158;86;20133;-74
2022/01/02 07:32:43;;;;;;;;;;;;;;;-0.98;78.12;99949.32;1650460;85;20090;-75
2022/01/02 07:35:10;;;;;;;;;;;;;;;-0.76;76.83;99959.86;1650484;86;21555;-74
2022/01/02 07:37:36;;;;;;;;;;;;;;;-0.40;76.19;99970.14;1648709;86;20284;-71
2022/01/02 07:40:03;;;;;;;;;;;;;;;-0.11;75.55;99980.00;1650394;85;20456;-71
2022/01/02 07:42:30;;;;;;;;;;;;;;;-0.07;72.65;99985.22;1651442;85;20090;-71
2022/01/02 07:44:58;;;;;;;;;;;;;;;0.07;73.75;99979.55;1655610;85;20462;-71
2022/01/02 07:47:25;;;;;;;;;;;;;;;0.27;72.39;99975.94;1666419;85;21534;-72
2022/01/02 07:49:52;;;;;;;;;;;;;;;0.39;71.69;99965.94;1677659;83;20508;-73
2022/01/02 07:52:19;;;;;;;;;;;;;;;0.59;71.70;99962.80;1662507;84;20189;-73
2022/01/02 07:54:45;;;;;;;;;;;;;;;0.85;70.13;99965.46;1660512;84;20155;-74
2022/01/02 07:57:11;;;;;;;;;;;;;;;0.90;66.98;99966.91;1659621;84;20223;-75
2022/01/02 07:59:37;;;;;;;;;;;;;;;1.09;68.57;99958.06;1675641;83;21538;-71
2022/01/02 08:02:05;;;;;;;;;;;;;;;1.58;68.14;99951.84;1674261;84;20167;-72
2022/01/02 08:04:32;;;;;;;;;;;;;;;2.11;67.10;99942.29;1649649;85;20102;-72
2022/01/02 08:06:58;;;;;;;;;;;;;;;2.35;63.90;99938.78;1646584;85;20730;-72
2022/01/02 08:09:24;;;;;;;;;;;;;;;2.50;63.08;99943.56;1644222;85;20104;-72
2022/01/02 08:11:51;;;;;;;;;;;;;;;2.63;62.14;99935.05;1647753;85;21579;-71
2022/01/02 08:14:17;;;;;;;;;;;;;;;2.95;60.06;99932.37;1649270;85;20090;-72
2022/01/02 08:16:44;;;;;;;;;;;;;;;3.07;59.42;99940.36;1647377;85;20090;-71
2022/01/02 08:19:10;;;;;;;;;;;;;;;3.09;59.84;99939.56;1669538;84;20602;-70
2022/01/02 08:21:37;;;;;;;;;;;;;;;3.12;58.14;99942.58;1663180;83;20121;-72
2022/01/02 08:24:04;;;;;;;;;;;;;;;2.98;58.48;99934.58;1642236;87;21783;-71
2022/01/02 08:26:32;;;;;;;;;;;;;;;3.05;57.82;99933.83;1651556;87;20090;-71
2022/01/02 08:29:02;;;;;;;;;;;;;;;3.30;58.43;99935.42;1651696;87;20087;-71
2022/01/02 08:31:28;;;;;;;;;;;;;;;3.59;57.55;99937.26;1652820;87;20137;-71
2022/01/02 08:33:55;;;;;;;;;;;;;;;3.84;57.21;99940.69;1650573;87;20078;-71
2022/01/02 08:36:21;;;;;;;;;;;;;;;4.09;57.25;99937.28;1650287;87;21710;-72
2022/01/02 08:38:47;;;;;;;;;;;;;;;4.39;56.44;99946.13;1652810;87;20113;-74
2022/01/02 08:41:15;;;;;;;;;;;;;;;4.55;55.63;99941.03;1652749;87;20098;-73
2022/01/02 08:43:42;;;;;;;;;;;;;;;4.43;54.19;99943.70;1652969;87;20094;-71
2022/01/02 08:46:08;;;;;;;;;;;;;;;4.00;54.35;99940.79;1652963;87;20508;-71
2022/01/02 08:48:34;;;;;;;;;;;;;;;3.60;53.18;99944.33;1651908;85;21477;-71
2022/01/02 08:51:02;;;;;;;;;;;;;;;3.29;55.11;99947.36;1648544;85;20111;-72
2022/01/02 08:53:31;;;;;;;;;;;;;;;3.34;54.72;99944.41;1652959;86;20473;-73
2022/01/02 08:55:57;;;;;;;;;;;;;;;3.38;55.42;99940.09;1652860;87;20189;-69
2022/01/02 08:58:23;;;;;;;;;;;;;;;3.58;55.67;99938.34;1652933;87;20236;-70
2022/01/02 09:00:49;;;;;;;;;;;;;;;3.72;54.94;99930.56;1653084;85;20556;-70
2022/01/02 09:03:17;;;;;;;;;;;;;;;3.74;54.95;99931.13;1652564;87;20141;-69
2022/01/02 09:05:44;;;;;;;;;;;;;;;4.02;54.22;99939.98;1652803;87;20173;-70
2022/01/02 09:08:11;;;;;;;;;;;;;;;4.14;53.36;99935.95;1652815;87;20102;-70
2022/01/02 09:10:37;;;;;;;;;;;;;;;4.29;53.90;99936.03;1652858;87;20462;-70
2022/01/02 09:13:07;;;;;;;;;;;;;;;4.29;53.34;99942.00;1652958;86;20457;-69
2022/01/02 09:15:34;;;;;;;;;;;;;;;3.86;52.53;99945.86;1652831;87;20115;-69
2022/01/02 09:18:01;;;;;;;;;;;;;;;3.02;53.73;99951.98;1653098;87;20091;-69
2022/01/02 09:20:28;;;;;;;;;;;;;;;2.38;55.77;99950.47;1651572;86;20138;-76
2022/01/02 09:22:55;;;;;;;;;;;;;;;2.24;58.34;99950.59;1652329;85;20485;-73
2022/01/02 09:25:21;;;;;;;;;;;;;;;2.61;59.02;99928.52;1652798;87;21535;-75
2022/01/02 09:27:47;;;;;;;;;;;;;;;3.22;56.56;99928.30;1653055;85;20137;-75
2022/01/02 09:30:14;;;;;;;;;;;;;;;3.34;53.77;99924.05;1652802;86;20122;-75
2022/01/02 09:32:41;;;;;;;;;;;;;;;3.50;56.02;99929.86;1651911;85;20166;-73
2022/01/02 09:35:08;;;;;;;;;;;;;;;3.92;55.77;99932.59;1652684;85;20127;-74
2022/01/02 09:37:36;;;;;;;;;;;;;;;4.52;52.94;99932.05;1647342;87;21172;-73
2022/01/02 09:40:04;;;;;;;;;;;;;;;4.74;53.36;99936.44;1650137;86;20082;-73
2022/01/02 09:42:33;;;;;;;;;;;;;;;5.06;53.11;99931.63;1646283;87;20114;-72
2022/01/02 09:45:00;;;;;;;;;;;;;;;5.34;49.06;99928.09;1653029;87;20166;-75
2022/01/02 09:47:26;;;;;;;;;;;;;;;5.21;48.65;99931.61;1652767;87;20098;-73
2022/01/02 09:49:52;;;;;;;;;;;;;;;5.21;49.68;99933.52;1653042;86;21022;-71
2022/01/02 09:52:19;;;;;;;;;;;;;;;5.57;48.55;99932.98;1641984;86;20456;-70
2022/01/02 09:54:46;;;;;;;;;;;;;;;5.69;49.10;99933.52;1626101;88;20145;-70
2022/01/02 09:57:13;;;;;;;;;;;;;;;5.84;46.96;99925.84;1625565;88;20104;-69
2022/01/02 09:59:39;;;;;;;;;;;;;;;5.78;46.81;99923.67;1625350;87;20096;-71
2022/01/02 10:02:07;;;;;;;;;;;;;;;5.91;48.19;99931.31;1626368;88;21160;-73
2022/01/02 10:04:38;;;;;;;;;;;;;;;6.23;48.13;99930.15;1626300;87;20129;-72
2022/01/02 10:07:29;;;;;;;;;;;;;;;6.51;45.93;99917.74;1626317;87;20129;-74
2022/01/02 10:09:55;;;;;;;;;;;;;;;6.57;45.03;99909.26;1621765;88;20193;-76
2022/01/02 10:12:30;;;;;;;;;;;;;;;6.34;44.66;99922.75;1624539;88;20104;-73
2022/01/02 10:15:18;;;;;;;;;;;;;;;6.11;45.88;99920.09;1626322;87;21142;-73
2022/01/02 10:18:03;;;;;;;;;;;;;;;5.88;45.29;99904.59;1626300;88;20093;-80
2022/01/02 10:20:37;;;;;;;;;;;;;;;5.69;46.23;99904.92;1626359;88;20189;-84
2022/01/02 10:23:14;;;;;;;;;;;;;;;5.65;47.32;99899.75;1620770;88;20109;-83
2022/01/02 10:25:55;;;;;;;;;;;;;;;5.80;47.55;99892.07;1626559;88;20419;-80
2022/01/02 10:28:29;;;;;;;;;;;;;;;5.69;45.85;99886.41;1620291;87;21261;-77
2022/01/02 10:30:58;;;;;;;;;;;;;;;5.50;45.95;99878.80;1622242;87;20432;-77
2022/01/02 10:33:26;;;;;;;;;;;;;;;5.36;48.13;99881.80;1627825;87;20130;-75
2022/01/02 10:35:56;;;;;;;;;;;;;;;5.52;47.61;99888.05;1625803;87;20157;-76
2022/01/02 10:38:24;;;;;;;;;;;;;;;5.57;45.82;99897.58;1628356;86;20090;-73
2022/01/02 10:40:51;;;;;;;;;;;;;;;5.38;45.78;99894.59;1636925;87;21110;-73
2022/01/02 10:43:29;;;;;;;;;;;;;;;5.31;48.22;99886.70;1634366;87;20493;-75
2022/01/02 10:45:57;;;;;;;;;;;;;;;5.72;46.79;99873.59;1631641;86;20080;-75
2022/01/02 10:48:32;;;;;;;;;;;;;;;6.07;46.53;99875.41;1626384;88;20145;-73
2022/01/02 10:51:04;;;;;;;;;;;;;;;6.19;45.52;99869.91;1611256;88;20090;-72
2022/01/02 10:53:34;;;;;;;;;;;;;;;6.29;45.55;99882.14;1626409;88;20117;-72
2022/01/02 10:56:01;;;;;;;;;;;;;;;6.39;44.03;99881.25;1626301;88;20438;-69
2022/01/02 10:58:28;;;;;;;;;;;;;;;6.14;42.93;99884.11;1626551;88;20148;-72
2022/01/02 11:01:01;;;;;;;;;;;;;;;5.99;44.17;99884.97;1621437;88;20517;-70
2022/01/02 11:03:27;;;;;;;;;;;;;;;6.15;45.29;99877.56;1621177;87;20449;-70
2022/01/02 11:05:58;;;;;;;;;;;;;;;6.47;44.82;99886.13;1638041;87;21571;-70
2022/01/02 11:08:25;;;;;;;;;;;;;;;6.91;44.82;99874.42;1626476;88;20459;-70
2022/01/02 11:10:52;;;;;;;;;;;;;;;7.33;43.91;99877.89;1618438;86;20472;-70
2022/01/02 11:13:20;;;;;;;;;;;;;;;7.77;40.85;99868.16;1626826;87;20179;-71
2022/01/02 11:15:46;;;;;;;;;;;;;;;7.87;40.17;99844.83;1649087;87;20177;-72
2022/01/02 11:18:13;;;;;;;;;;;;;;;7.77;40.96;99854.50;1639767;86;21146;-71
2022/01/02 11:20:40;;;;;;;;;;;;;;;7.81;40.64;99880.70;1626327;87;20105;-71
2022/01/02 11:23:25;;;;;;;;;;;;;;;7.63;40.70;99876.77;1629100;87;20106;-71
2022/01/02 11:26:24;;;;;;;;;;;;;;;7.48;40.48;99879.13;1628115;87;20508;-72
2022/01/02 11:28:50;;;;;;;;;;;;;;;7.40;41.82;99873.47;1653262;87;20106;-72
2022/01/02 11:31:36;;;;;;;;;;;;;;;7.45;40.93;99869.33;1645152;86;21150;-74
2022/01/02 11:34:19;;;;;;;;;;;;;;;7.45;40.69;99861.13;1637995;87;20424;-73
2022/01/02 11:36:45;;;;;;;;;;;;;;;7.38;41.06;99875.12;1628284;87;20437;-72
2022/01/02 11:39:12;;;;;;;;;;;;;;;7.19;39.79;99874.19;1644550;87;20466;-71
2022/01/02 11:41:43;;;;;;;;;;;;;;;6.89;40.80;99862.42;1645880;86;20187;-70
2022/01/02 11:44:12;;;;;;;;;;;;;;;6.65;40.78;99857.94;1643210;87;21157;-72
2022/01/02 11:46:50;;;;;;;;;;;;;;;6.41;42.61;99857.25;1642542;86;20140;-70
2022/01/02 11:49:19;;;;;;;;;;;;;;;6.07;43.18;99872.14;1644095;86;20467;-70
2022/01/02 11:52:09;;;;;;;;;;;;;;;5.78;43.76;99864.28;1642637;86;20140;-71
2022/01/02 11:54:43;;;;;;;;;;;;;;;5.74;43.97;99862.69;1643035;87;20132;-70
2022/01/02 11:57:15;;;;;;;;;;;;;;;5.87;42.95;99853.91;1643118;87;21530;-70
2022/01/02 11:59:46;;;;;;;;;;;;;;;5.95;43.43;99841.11;1642957;87;20135;-70
2022/01/02 12:02:20;;;;;;;;;;;;;;;6.26;43.02;99830.08;1640805;86;20176;-70
2022/01/02 12:05:10;;;;;;;;;;;;;;;6.39;42.55;99832.72;1632615;86;20104;-71
2022/01/02 12:07:37;;;;;;;;;;;;;;;6.41;43.48;99831.34;1615650;88;20144;-70
2022/01/02 12:10:23;;;;;;;;;;;;;;;6.59;43.55;99819.78;1626012;88;20104;-70
2022/01/02 12:13:04;;;;;;;;;;;;;;;6.91;42.81;99814.38;1616536;88;20276;-70
2022/01/02 12:15:34;;;;;;;;;;;;;;;7.07;41.86;99805.48;1624931;88;20092;-73
2022/01/02 12:18:16;;;;;;;;;;;;;;;7.14;42.10;99798.59;1626147;87;20554;-76
2022/01/02 12:20:56;;;;;;;;;;;;;;;7.15;40.38;99803.50;1626357;87;20093;-71
2022/01/02 12:23:49;;;;;;;;;;;;;;;6.90;41.10;99806.73;1626325;88;22173;-71
2022/01/02 12:26:18;;;;;;;;;;;;;;;6.72;41.03;99800.59;1626331;87;20117;-75
2022/01/02 12:28:47;;;;;;;;;;;;;;;6.80;41.87;99799.17;1607921;88;20434;-74
2022/01/02 12:31:15;;;;;;;;;;;;;;;7.13;40.14;99796.15;1626141;87;20113;-79
2022/01/02 12:33:43;;;;;;;;;;;;;;;7.18;39.80;99799.65;1623698;87;20085;-75
2022/01/02 12:36:16;;;;;;;;;;;;;;;7.08;40.22;99801.10;1625984;86;21512;-76
2022/01/02 12:38:49;;;;;;;;;;;;;;;6.93;39.95;99802.63;1623726;87;20518;-78
2022/01/02 12:41:17;;;;;;;;;;;;;;;6.76;41.59;99792.66;1624820;88;20129;-76
2022/01/02 12:44:01;;;;;;;;;;;;;;;6.75;42.13;99781.48;1622613;87;20099;-75
2022/01/02 12:46:39;;;;;;;;;;;;;;;6.72;41.96;99780.69;1632345;85;20119;-79
2022/01/02 12:49:18;;;;;;;;;;;;;;;6.40;41.43;99785.27;1631348;87;21127;-75
2022/01/02 12:51:50;;;;;;;;;;;;;;;6.00;42.84;99793.13;1640390;86;20124;-71
2022/01/02 12:54:20;;;;;;;;;;;;;;;5.73;43.53;99792.95;1650402;86;20165;-77
2022/01/02 12:56:50;;;;;;;;;;;;;;;5.46;44.25;99787.04;1649292;86;20111;-75
2022/01/02 12:59:38;;;;;;;;;;;;;;;5.10;44.89;99787.13;1648826;85;20090;-75
2022/01/02 13:02:15;;;;;;;;;;;;;;;4.71;44.52;99786.04;1643583;85;21123;-77
2022/01/02 13:04:46;;;;;;;;;;;;;;;4.23;45.73;99782.19;1629343;87;20113;-81
2022/01/02 13:07:15;;;;;;;;;;;;;;;3.95;46.32;99794.35;1626066;87;20105;-80
2022/01/02 13:09:46;;;;;;;;;;;;;;;3.74;47.72;99797.25;1626033;87;20113;-80
2022/01/02 13:12:15;;;;;;;;;;;;;;;3.54;48.47;99792.53;1626234;88;20650;-76
2022/01/02 13:14:50;;;;;;;;;;;;;;;3.36;48.65;99784.31;1626520;87;21765;-79